Time;durP1;ratioP1;P1;durP2;ratioP2;P2;SDS_P1;SDS_P2;PMS_P1;PMS_P2;Temp;Humidity;BMP_temperature;BMP_pressure;BME280_temperature;BME280_humidity;BME280_pressure;Samples;Min_cycle;Max_cycle;Signal;HPM_P1;HPM_P2
2021/08/27 00:00:14;;;;;;;6.65;0.90;;;;;;;15.67;80.51;101730.38;5038578;28;20156;-60
2021/08/27 00:02:41;;;;;;;5.43;1.00;;;;;;;16.30;78.11;101723.84;5043665;28;20152;-58
2021/08/27 00:05:09;;;;;;;6.80;0.95;;;;;;;16.19;77.83;101722.34;5035660;28;20238;-60
2021/08/27 00:07:36;;;;;;;4.50;0.85;;;;;;;15.81;79.78;101723.69;5040428;28;20091;-62
2021/08/27 00:10:03;;;;;;;8.68;1.13;;;;;;;15.34;82.76;101730.19;5034753;28;20076;-60
2021/08/27 00:12:30;;;;;;;5.45;1.02;;;;;;;15.22;83.29;101742.81;5039913;28;20544;-59
2021/08/27 00:14:56;;;;;;;5.53;1.05;;;;;;;15.43;83.28;101733.72;5044603;28;20127;-60
2021/08/27 00:17:29;;;;;;;12.57;1.38;;;;;;;15.13;84.40;101733.19;5019680;28;20129;-60
2021/08/27 00:19:57;;;;;;;5.65;1.10;;;;;;;15.26;84.16;101731.97;5044310;28;20151;-60
2021/08/27 00:22:24;;;;;;;4.63;0.88;;;;;;;15.13;85.32;101724.41;5031179;28;20393;-60
2021/08/27 00:24:52;;;;;;;7.18;0.98;;;;;;;15.51;82.61;101731.13;5041613;28;20092;-62
2021/08/27 00:27:19;;;;;;;6.28;1.27;;;;;;;15.66;81.85;101735.81;5038018;28;20156;-62
2021/08/27 00:29:45;;;;;;;6.97;0.85;;;;;;;15.99;79.58;101723.59;5046630;28;20649;-60
2021/08/27 00:32:12;;;;;;;10.70;1.17;;;;;;;16.20;77.60;101723.16;5011270;28;20576;-62
2021/08/27 00:34:38;;;;;;;3.60;0.80;;;;;;;15.73;79.69;101723.66;5036923;28;20867;-61
2021/08/27 00:37:05;;;;;;;6.53;1.00;;;;;;;15.27;82.21;101734.44;5038727;28;20512;-60
2021/08/27 00:39:32;;;;;;;6.35;1.10;;;;;;;14.97;84.69;101728.59;5034453;28;20140;-58
2021/08/27 00:41:59;;;;;;;6.90;1.25;;;;;;;15.25;83.73;101728.50;5043712;28;20056;-62
2021/08/27 00:44:25;;;;;;;8.95;1.08;;;;;;;15.25;83.23;101730.28;5037993;28;20080;-60
2021/08/27 00:46:52;;;;;;;5.32;0.90;;;;;;;15.46;81.58;101722.81;5044603;28;20144;-60
2021/08/27 00:49:18;;;;;;;4.57;1.75;;;;;;;15.77;79.60;101725.00;5039400;28;20504;-58
2021/08/27 00:51:45;;;;;;;5.30;1.10;;;;;;;15.77;79.62;101725.00;5031644;28;20139;-61
2021/08/27 00:54:12;;;;;;;4.50;1.05;;;;;;;15.78;80.09;101724.84;5042134;28;20048;-60
2021/08/27 00:56:39;;;;;;;8.55;1.60;;;;;;;15.73;79.56;101724.47;5033076;28;20080;-60
2021/08/27 00:59:05;;;;;;;14.23;1.30;;;;;;;15.65;80.45;101719.13;5042381;28;20106;-62
2021/08/27 01:01:32;;;;;;;9.77;1.13;;;;;;;15.28;82.15;101727.34;5034591;28;20152;-62
2021/08/27 01:04:00;;;;;;;7.20;1.00;;;;;;;15.43;82.61;101716.03;5035842;28;20102;-61
2021/08/27 01:06:37;;;;;;;7.07;1.55;;;;;;;15.65;81.04;101713.03;5040128;28;20116;-61
2021/08/27 01:09:16;;;;;;;16.95;2.78;;;;;;;15.62;80.77;101708.84;5038072;28;20076;-59
2021/08/27 01:12:20;;;;;;;4.60;0.90;;;;;;;15.33;82.04;101704.75;5039612;28;20532;-62
2021/08/27 01:14:52;;;;;;;11.13;1.00;;;;;;;15.18;83.29;101709.75;4985376;28;20155;-62
2021/08/27 01:17:28;;;;;;;5.70;1.02;;;;;;;15.07;84.21;101709.19;5036823;28;20052;-61
2021/08/27 01:20:40;;;;;;;6.00;0.98;;;;;;;14.93;85.08;101710.56;5029459;28;20143;-61
2021/08/27 01:23:27;;;;;;;9.32;1.00;;;;;;;14.94;85.40;101710.44;5042314;28;20052;-61
2021/08/27 01:25:58;;;;;;;8.98;1.35;;;;;;;15.06;85.02;101702.25;5036078;28;20135;-61
2021/08/27 01:28:28;;;;;;;9.68;1.30;;;;;;;15.37;83.06;101713.19;5042221;28;20045;-62
2021/08/27 01:30:54;;;;;;;4.45;1.00;;;;;;;15.41;81.86;101711.91;5025719;28;20084;-61
2021/08/27 01:33:22;;;;;;;4.82;0.95;;;;;;;15.66;81.83;101704.94;5018821;28;20232;-61
2021/08/27 01:35:51;;;;;;;;;;;;;;;15.70;80.62;101711.56;5032970;28;20080;-61
2021/08/27 01:38:20;;;;;;;5.32;1.13;;;;;;;15.54;80.33;101707.03;5041763;28;19959;-62
2021/08/27 01:40:49;;;;;;;3.95;0.95;;;;;;;15.25;82.68;101715.28;5036216;28;20559;-62
2021/08/27 01:43:16;;;;;;;5.65;1.02;;;;;;;15.49;81.63;101706.66;5041182;28;20099;-61
2021/08/27 01:45:46;;;;;;;7.75;1.00;;;;;;;15.56;80.80;101689.19;5036818;28;20445;-62
2021/08/27 01:48:13;;;;;;;4.45;0.80;;;;;;;15.71;80.12;101705.25;5036423;28;20052;-62
2021/08/27 01:50:42;;;;;;;9.63;1.40;;;;;;;15.69;80.81;101711.72;5041782;28;20059;-62
2021/08/27 01:53:09;;;;;;;4.75;1.10;;;;;;;15.33;81.64;101709.22;5036045;28;20655;-59
2021/08/27 01:55:38;;;;;;;7.90;1.20;;;;;;;15.29;82.85;101708.69;5044320;28;20049;-62
2021/08/27 01:58:06;;;;;;;5.57;0.93;;;;;;;15.54;82.16;101709.66;5033774;28;20056;-61
2021/08/27 02:00:34;;;;;;;6.20;1.25;;;;;;;15.28;83.07;101709.66;5038363;28;20989;-62
2021/08/27 02:03:02;;;;;;;6.43;1.40;;;;;;;15.16;83.93;101708.28;5044734;28;20052;-62
2021/08/27 02:05:32;;;;;;;6.15;1.20;;;;;;;15.06;84.17;101718.13;5037004;28;20056;-61
2021/08/27 02:08:00;;;;;;;6.40;1.17;;;;;;;15.31;83.62;101721.72;5042449;28;20116;-62
2021/08/27 02:10:28;;;;;;;4.00;1.25;;;;;;;15.37;82.92;101723.78;5017821;28;20622;-62
2021/08/27 02:12:54;;;;;;;6.40;0.90;;;;;;;15.79;80.94;101715.91;5037592;28;20596;-61
2021/08/27 02:15:23;;;;;;;6.05;1.08;;;;;;;15.77;80.22;101720.53;5033611;28;20444;-62
2021/08/27 02:17:50;;;;;;;5.07;1.20;;;;;;;15.76;80.06;101718.06;5041287;28;20059;-61
2021/08/27 02:20:17;;;;;;;4.15;1.10;;;;;;;15.98;78.78;101722.78;5037308;28;20127;-61
2021/08/27 02:22:50;;;;;;;11.75;1.70;;;;;;;15.63;80.43;101721.94;5041304;28;20396;-61
2021/08/27 02:25:20;;;;;;;8.32;1.60;;;;;;;15.76;80.26;101716.25;5039102;28;20484;-62
2021/08/27 02:27:47;;;;;;;5.93;0.80;;;;;;;15.72;80.51;101722.81;5028727;28;20088;-59
2021/08/27 02:30:16;;;;;;;10.40;1.20;;;;;;;15.93;79.76;101718.94;5040538;28;20132;-61
2021/08/27 02:32:43;;;;;;;7.47;1.20;;;;;;;15.60;81.79;101726.69;5032376;28;20128;-61
2021/08/27 02:35:12;;;;;;;16.50;1.73;;;;;;;15.29;82.79;101729.00;5039281;28;20143;-61
2021/08/27 02:37:40;;;;;;;5.50;0.98;;;;;;;15.20;84.52;101723.66;5036583;28;20368;-61
2021/08/27 02:40:08;;;;;;;7.22;1.23;;;;;;;15.11;85.17;101734.31;5037692;28;20084;-62
2021/08/27 02:42:34;;;;;;;6.70;1.33;;;;;;;14.97;86.18;101723.31;5039394;28;20080;-62
2021/08/27 02:45:05;;;;;;;5.32;1.20;;;;;;;15.11;84.67;101727.25;5035023;28;20132;-61
2021/08/27 02:47:31;;;;;;;7.57;1.02;;;;;;;14.91;86.44;101731.84;5044320;28;20054;-61
2021/08/27 02:49:58;;;;;;;4.57;1.13;;;;;;;15.08;86.13;101722.25;5034884;28;20136;-61
2021/08/27 02:52:31;;;;;;;6.28;1.17;;;;;;;15.07;85.65;101730.31;5042741;28;20131;-61
2021/08/27 02:55:15;;;;;;;9.30;1.27;;;;;;;15.68;81.80;101731.19;5029207;28;20708;-61
2021/08/27 02:57:59;;;;;;;5.50;1.10;;;;;;;15.41;82.57;101728.59;5023443;28;20140;-61
2021/08/27 03:00:28;;;;;;;7.75;1.38;;;;;;;15.24;84.42;101726.81;5033004;28;20127;-62
2021/08/27 03:02:56;;;;;;;6.60;1.08;;;;;;;15.52;83.12;101724.84;5026938;28;20053;-61
2021/08/27 03:05:25;;;;;;;9.90;1.38;;;;;;;15.47;82.90;101729.78;5043074;28;20553;-61
2021/08/27 03:07:58;;;;;;;5.20;1.05;;;;;;;15.81;81.62;101734.28;5031599;28;20140;-62
2021/08/27 03:10:43;;;;;;;8.80;1.70;;;;;;;16.24;78.79;101737.75;5002126;28;20140;-61
2021/08/27 03:13:14;;;;;;;9.25;0.98;;;;;;;16.04;79.03;101734.53;5036354;28;20136;-61
2021/08/27 03:15:52;;;;;;;3.33;0.95;;;;;;;15.74;80.20;101734.09;5043578;28;20223;-63
2021/08/27 03:18:30;;;;;;;5.90;1.33;;;;;;;15.51;82.38;101731.13;5033471;28;20053;-60
2021/08/27 03:21:07;;;;;;;10.70;1.67;;;;;;;15.84;80.81;101733.97;5042919;28;20096;-60
2021/08/27 03:23:35;;;;;;;14.18;3.67;;;;;;;15.75;81.44;101732.25;5028618;28;20110;-61
2021/08/27 03:26:04;;;;;;;6.07;1.30;;;;;;;16.06;79.86;101732.56;5026074;28;20406;-61
2021/08/27 03:28:33;;;;;;;;;;;;;;;16.06;78.56;101739.69;5038291;28;20131;-62
2021/08/27 03:31:00;;;;;;;7.57;1.27;;;;;;;16.30;78.80;101738.91;5044287;28;19925;-60
2021/08/27 03:33:27;;;;;;;9.15;1.27;;;;;;;16.13;79.58;101738.03;5044085;28;20132;-61
2021/08/27 03:35:55;;;;;;;9.30;1.40;;;;;;;16.47;78.23;101731.84;5031199;28;20084;-61
2021/08/27 03:38:24;;;;;;;5.25;1.15;;;;;;;16.59;77.03;101730.53;5041810;28;20549;-61
2021/08/27 03:40:51;;;;;;;4.88;1.30;;;;;;;16.49;76.94;101724.56;5020104;28;20140;-62
2021/08/27 03:43:18;;;;;;;3.85;1.13;;;;;;;16.32;76.69;101732.47;5047419;28;20053;-62
2021/08/27 03:45:47;;;;;;;5.95;1.25;;;;;;;16.18;77.66;101733.91;5038349;28;20139;-62
2021/08/27 03:48:13;;;;;;;;;;;;;;;16.33;77.96;101735.97;5042944;28;20057;-62
2021/08/27 03:50:40;;;;;;;3.50;0.90;;;;;;;15.73;81.03;101739.53;5039962;28;20023;-62
2021/08/27 03:53:09;;;;;;;7.35;1.10;;;;;;;15.76;81.10;101742.69;5032368;28;20136;-61
2021/08/27 03:55:35;;;;;;;5.53;1.20;;;;;;;15.65;81.26;101750.88;5044855;28;20053;-62
2021/08/27 03:58:02;;;;;;;4.20;1.10;;;;;;;15.26;84.68;101743.34;5033857;28;20063;-61
2021/08/27 04:00:37;;;;;;;2.72;0.73;;;;;;;15.35;84.51;101739.78;5041551;28;20107;-62
2021/08/27 04:03:04;;;;;;;6.95;1.10;;;;;;;15.49;83.81;101735.75;5031884;28;20171;-62
2021/08/27 04:05:31;;;;;;;7.57;1.53;;;;;;;15.38;84.43;101733.34;5037871;28;20141;-61
2021/08/27 04:07:58;;;;;;;6.07;1.20;;;;;;;15.52;84.94;101732.75;5043795;28;20858;-60
2021/08/27 04:10:25;;;;;;;10.20;1.38;;;;;;;15.68;82.19;101729.41;5032879;28;20152;-62
2021/08/27 04:12:51;;;;;;;7.30;1.15;;;;;;;16.05;81.74;101730.88;5045318;28;20144;-61
2021/08/27 04:15:22;;;;;;;4.95;1.05;;;;;;;16.19;80.55;101735.59;5035387;28;20156;-59
2021/08/27 04:17:50;;;;;;;5.20;1.02;;;;;;;15.86;80.56;101732.00;5039008;28;20107;-60
2021/08/27 04:20:17;;;;;;;10.40;2.70;;;;;;;15.88;80.40;101732.66;5028652;28;20049;-60
2021/08/27 04:22:43;;;;;;;4.10;1.60;;;;;;;16.45;78.69;101729.34;5040395;28;20048;-62
2021/08/27 04:25:10;;;;;;;9.15;1.33;;;;;;;16.74;76.07;101736.84;5037775;28;20925;-61
2021/08/27 04:27:37;;;;;;;9.30;1.38;;;;;;;16.72;75.82;101730.03;5039993;28;20152;-62
2021/08/27 04:30:04;;;;;;;5.43;1.30;;;;;;;16.52;75.77;101740.09;5042207;28;20068;-61
2021/08/27 04:32:30;;;;;;;5.32;1.35;;;;;;;16.34;77.64;101741.06;5009344;28;20080;-62
2021/08/27 04:34:57;;;;;;;8.07;1.40;;;;;;;16.16;78.09;101745.66;5025355;28;20156;-62
2021/08/27 04:37:23;;;;;;;6.78;1.10;;;;;;;16.03;79.15;101743.44;5037314;28;20081;-62
2021/08/27 04:39:50;;;;;;;3.10;0.90;;;;;;;16.00;79.32;101736.66;5044748;28;20139;-60
2021/08/27 04:42:16;;;;;;;4.35;1.20;;;;;;;15.81;80.45;101744.84;5037445;28;20566;-61
2021/08/27 04:44:43;;;;;;;4.20;1.17;;;;;;;15.80;81.17;101748.50;5035358;28;20635;-62
2021/08/27 04:47:09;;;;;;;11.07;1.92;;;;;;;15.68;81.39;101744.41;5041115;28;20512;-62
2021/08/27 04:49:36;;;;;;;7.13;1.25;;;;;;;15.87;80.26;101752.16;5036829;28;20156;-61
2021/08/27 04:52:02;;;;;;;2.88;0.95;;;;;;;16.30;78.88;101752.97;5045245;28;20106;-60
2021/08/27 04:54:29;;;;;;;8.45;0.95;;;;;;;16.24;78.76;101750.16;5020377;28;20150;-61
2021/08/27 04:56:55;;;;;;;6.47;1.35;;;;;;;15.64;81.51;101751.84;5042636;28;20136;-61
2021/08/27 04:59:22;;;;;;;4.80;1.00;;;;;;;15.80;80.83;101756.44;5026300;28;20123;-62
2021/08/27 05:01:48;;;;;;;4.65;1.27;;;;;;;15.45;83.87;101760.84;5040770;28;20119;-62
2021/08/27 05:04:15;;;;;;;5.00;1.70;;;;;;;15.39;84.74;101759.63;5043938;28;20060;-61
2021/08/27 05:06:42;;;;;;;4.90;1.23;;;;;;;15.73;82.93;101752.75;5033531;28;20159;-61
2021/08/27 05:09:08;;;;;;;6.05;1.20;;;;;;;15.78;82.87;101753.94;5040201;28;20456;-62
2021/08/27 05:11:35;;;;;;;7.30;1.48;;;;;;;16.09;81.57;101763.16;5027195;28;20076;-58
2021/08/27 05:14:01;;;;;;;4.20;1.30;;;;;;;15.59;83.64;101757.59;5042182;28;20064;-60
2021/08/27 05:16:28;;;;;;;7.18;1.23;;;;;;;15.75;83.36;101756.06;5033293;28;20560;-60
2021/08/27 05:18:54;;;;;;;6.82;1.17;;;;;;;16.63;79.36;101752.22;5042282;28;20045;-62
2021/08/27 05:21:21;;;;;;;5.40;1.00;;;;;;;16.24;79.93;101753.63;5040683;28;20132;-60
2021/08/27 05:23:47;;;;;;;5.78;1.13;;;;;;;16.03;81.05;101759.31;5027375;28;20164;-62
2021/08/27 05:26:14;;;;;;;2.97;0.93;;;;;;;15.85;83.04;101753.31;5037564;28;20139;-59
2021/08/27 05:28:40;;;;;;;6.78;1.30;;;;;;;15.80;83.08;101756.44;5032329;28;20143;-60
2021/08/27 05:31:09;;;;;;;3.55;1.08;;;;;;;15.73;84.28;101760.69;5040821;28;20383;-62
2021/08/27 05:33:37;;;;;;;5.35;1.38;;;;;;;15.75;83.95;101764.00;5033367;28;20056;-62
2021/08/27 05:36:04;;;;;;;3.45;0.90;;;;;;;15.61;84.71;101765.38;5038772;28;20140;-61
2021/08/27 05:38:30;;;;;;;4.45;1.30;;;;;;;15.97;82.71;101757.31;5035631;28;20122;-61
2021/08/27 05:40:57;;;;;;;5.85;1.10;;;;;;;16.38;80.75;101760.94;5030900;28;20168;-61
2021/08/27 05:43:24;;;;;;;5.63;1.15;;;;;;;15.96;82.74;101772.38;5041827;28;20507;-61
2021/08/27 05:45:51;;;;;;;4.90;1.20;;;;;;;16.90;78.78;101770.50;5031978;28;20053;-61
2021/08/27 05:48:18;;;;;;;6.75;1.17;;;;;;;16.48;80.59;101776.69;5040852;28;20411;-61
2021/08/27 05:50:46;;;;;;;7.47;1.35;;;;;;;16.27;81.57;101774.50;5027151;28;20140;-61
2021/08/27 05:53:12;;;;;;;6.53;1.10;;;;;;;16.06;83.92;101782.84;5033875;28;20168;-61
2021/08/27 05:55:39;;;;;;;2.88;0.80;;;;;;;16.09;84.57;101781.69;5042544;28;20435;-60
2021/08/27 05:58:06;;;;;;;8.13;1.20;;;;;;;16.29;83.06;101790.19;5033393;28;20143;-62
2021/08/27 06:00:33;;;;;;;6.20;1.33;;;;;;;16.22;83.38;101790.00;5042521;28;20131;-62
2021/08/27 06:03:00;;;;;;;4.97;1.30;;;;;;;16.20;83.99;101786.69;5032420;28;20049;-61
2021/08/27 06:05:27;;;;;;;4.97;1.00;;;;;;;16.37;83.89;101790.25;5036094;28;20060;-61
2021/08/27 06:07:54;;;;;;;5.72;1.15;;;;;;;16.59;82.31;101794.09;5028953;28;20151;-62
2021/08/27 06:10:20;;;;;;;8.35;1.35;;;;;;;16.45;82.73;101790.25;5038936;28;20128;-62
2021/08/27 06:12:47;;;;;;;9.23;1.63;;;;;;;16.64;82.26;101786.50;5045398;28;20164;-61
2021/08/27 06:15:14;;;;;;;6.47;1.15;;;;;;;16.52;82.58;101785.13;5036800;28;20049;-61
2021/08/27 06:17:41;;;;;;;10.48;1.45;;;;;;;16.54;82.65;101791.94;5046612;28;20799;-61
2021/08/27 06:20:09;;;;;;;4.53;1.30;;;;;;;16.55;82.71;101790.13;5029812;28;20409;-62
2021/08/27 06:22:35;;;;;;;4.45;1.23;;;;;;;16.59;82.80;101791.44;5045292;28;20139;-62
2021/08/27 06:25:02;;;;;;;5.57;1.15;;;;;;;17.11;79.85;101798.31;5035546;28;20164;-61
2021/08/27 06:27:29;;;;;;;7.22;1.42;;;;;;;17.44;78.82;101796.47;5046418;28;20381;-62
2021/08/27 06:29:55;;;;;;;7.60;1.40;;;;;;;17.52;78.95;101798.28;5044514;28;20137;-61
2021/08/27 06:32:22;;;;;;;7.95;2.00;;;;;;;17.30;79.75;101799.81;5029573;28;20571;-61
2021/08/27 06:34:48;;;;;;;6.13;1.40;;;;;;;17.46;78.19;101798.97;5040929;28;20079;-61
2021/08/27 06:37:14;;;;;;;6.50;1.27;;;;;;;16.78;81.45;101795.63;5036166;28;20073;-60
2021/08/27 06:39:41;;;;;;;4.47;1.23;;;;;;;16.43;84.13;101792.25;5044186;28;20053;-59
2021/08/27 06:42:08;;;;;;;6.15;1.15;;;;;;;16.22;85.71;101795.31;5035553;28;20153;-62
2021/08/27 06:44:34;;;;;;;5.18;1.30;;;;;;;16.14;86.59;101792.63;5045137;28;20650;-60
2021/08/27 06:47:01;;;;;;;6.20;1.13;;;;;;;16.13;86.77;101794.47;5038075;28;20161;-61
2021/08/27 06:49:27;;;;;;;5.60;1.50;;;;;;;16.11;87.10;101796.44;5035391;28;20052;-59
2021/08/27 06:51:54;;;;;;;6.97;1.30;;;;;;;16.06;86.33;101793.44;5024569;28;20125;-61
2021/08/27 06:54:20;;;;;;;4.03;1.20;;;;;;;16.13;87.44;101793.59;5034374;28;20140;-62
2021/08/27 06:56:46;;;;;;;5.05;1.00;;;;;;;16.14;86.76;101796.09;5045444;28;20136;-62
2021/08/27 06:59:13;;;;;;;9.35;1.30;;;;;;;16.13;85.91;101799.75;5030552;28;20415;-62
2021/08/27 07:01:40;;;;;;;2.30;0.80;;;;;;;16.78;82.60;101795.63;5038067;28;20147;-62
2021/08/27 07:04:06;;;;;;;9.43;1.73;;;;;;;17.59;79.21;101793.97;5044208;28;20567;-62
2021/08/27 07:06:33;;;;;;;6.13;1.17;;;;;;;17.52;78.50;101791.19;5036158;28;20139;-62
2021/08/27 07:08:59;;;;;;;8.18;1.20;;;;;;;17.70;76.87;101793.63;5043560;28;20163;-60
2021/08/27 07:11:26;;;;;;;4.45;0.88;;;;;;;18.29;73.90;101787.13;5033754;28;20048;-61
2021/08/27 07:13:52;;;;;;;6.25;1.10;;;;;;;18.05;73.49;101788.06;5040313;28;20049;-62
2021/08/27 07:16:19;;;;;;;5.40;0.95;;;;;;;18.06;74.66;101789.72;5028905;28;20044;-61
2021/08/27 07:18:45;;;;;;;7.35;1.35;;;;;;;17.73;76.13;101784.50;5043668;28;20064;-61
2021/08/27 07:21:12;;;;;;;4.97;1.20;;;;;;;17.59;79.02;101786.84;5039845;28;20114;-61
2021/08/27 07:23:39;;;;;;;6.05;1.50;;;;;;;18.13;74.58;101794.19;5039643;28;20176;-61
2021/08/27 07:26:05;;;;;;;2.53;0.90;;;;;;;18.27;74.85;101789.09;5045143;28;20131;-61
2021/08/27 07:28:33;;;;;;;6.03;0.95;;;;;;;18.17;74.83;101799.97;5027977;28;20309;-62
2021/08/27 07:31:00;;;;;;;5.70;0.95;;;;;;;17.91;76.37;101794.91;5041694;28;20072;-61
2021/08/27 07:33:26;;;;;;;4.63;1.20;;;;;;;18.75;72.43;101788.00;5034987;28;21241;-62
2021/08/27 07:35:53;;;;;;;6.35;1.40;;;;;;;18.31;74.58;101790.44;5043267;28;20081;-62
2021/08/27 07:38:19;;;;;;;5.45;1.30;;;;;;;17.99;76.92;101789.56;5036275;28;20553;-62
2021/08/27 07:40:46;;;;;;;2.95;1.27;;;;;;;17.91;77.40;101797.56;5020191;28;20546;-61
2021/08/27 07:43:12;;;;;;;6.97;1.20;;;;;;;17.82;76.64;101796.75;5039129;28;20136;-62
2021/08/27 07:45:39;;;;;;;7.18;1.40;;;;;;;17.93;78.38;101799.03;5034169;28;20772;-62
2021/08/27 07:48:05;;;;;;;4.55;1.42;;;;;;;17.87;77.33;101794.41;5044674;28;20428;-62
2021/08/27 07:50:32;;;;;;;7.00;1.48;;;;;;;18.01;77.35;101805.31;5033848;28;20045;-62
2021/08/27 07:52:58;;;;;;;4.97;1.23;;;;;;;18.01;76.80;101808.81;5025959;28;20049;-62
2021/08/27 07:55:25;;;;;;;6.25;1.50;;;;;;;18.48;75.64;101812.41;5028870;28;20155;-60
2021/08/27 07:57:51;;;;;;;5.60;1.30;;;;;;;18.64;73.89;101808.84;5038017;28;20422;-62
2021/08/27 08:00:18;;;;;;;8.30;1.67;;;;;;;18.74;74.42;101806.81;5041329;28;20055;-60
2021/08/27 08:02:44;;;;;;;5.88;1.20;;;;;;;18.61;75.37;101809.19;5037481;28;20519;-60
2021/08/27 08:05:11;;;;;;;6.53;1.20;;;;;;;18.49;75.50;101811.44;5047321;28;20494;-60
2021/08/27 08:07:38;;;;;;;6.20;1.73;;;;;;;18.61;75.41;101820.66;5038863;28;20056;-61
2021/08/27 08:10:05;;;;;;;8.02;1.83;;;;;;;19.19;73.13;101810.47;5040697;28;20076;-60
2021/08/27 08:12:31;;;;;;;5.90;1.33;;;;;;;19.06;74.64;101808.41;5033957;28;21376;-61
2021/08/27 08:14:58;;;;;;;4.05;0.98;;;;;;;19.22;74.35;101809.28;5045614;28;20118;-61
2021/08/27 08:17:25;;;;;;;5.60;1.27;;;;;;;19.54;74.18;101803.66;5045106;28;20140;-61
2021/08/27 08:19:51;;;;;;;2.33;0.90;;;;;;;18.95;75.86;101820.31;5035382;28;20064;-61
2021/08/27 08:22:21;;;;;;;5.25;1.15;;;;;;;18.65;76.25;101810.50;5042102;28;20114;-61
2021/08/27 08:24:48;;;;;;;4.35;1.27;;;;;;;18.78;76.00;101813.41;5032297;28;20093;-61
2021/08/27 08:27:15;;;;;;;4.68;1.20;;;;;;;18.68;75.29;101803.00;5046468;28;20473;-61
2021/08/27 08:29:41;;;;;;;4.43;1.20;;;;;;;18.93;73.35;101800.19;5039934;28;20049;-61
2021/08/27 08:32:08;;;;;;;4.30;1.08;;;;;;;19.30;72.46;101802.03;5045562;28;20144;-61
2021/08/27 08:34:35;;;;;;;5.00;1.40;;;;;;;19.91;68.87;101804.59;5025385;28;20136;-62
2021/08/27 08:37:01;;;;;;;3.50;0.88;;;;;;;20.27;67.34;101803.84;5035874;28;20088;-61
2021/08/27 08:39:28;;;;;;;5.47;1.20;;;;;;;20.73;64.69;101795.56;5043669;28;20089;-61
2021/08/27 08:41:54;;;;;;;6.80;1.10;;;;;;;20.96;64.46;101796.41;5036531;28;20056;-61
2021/08/27 08:44:21;;;;;;;5.10;1.17;;;;;;;21.22;64.34;101791.25;5041164;28;20136;-61
2021/08/27 08:46:49;;;;;;;5.40;1.40;;;;;;;21.10;63.41;101782.97;5039604;28;20063;-61
2021/08/27 08:49:19;;;;;;;;;;;;;;;21.06;65.39;101788.88;5040999;28;20052;-60
2021/08/27 08:51:49;;;;;;;5.80;1.48;;;;;;;21.03;66.49;101791.91;5038512;28;19971;-61
2021/08/27 08:54:18;;;;;;;8.15;1.92;;;;;;;21.26;65.49;101783.69;5035898;28;20461;-60
2021/08/27 08:56:45;;;;;;;8.52;1.73;;;;;;;21.55;64.12;101780.03;5041811;28;20049;-62
2021/08/27 08:59:15;;;;;;;6.97;1.43;;;;;;;21.51;62.83;101784.13;5038499;28;20480;-61
2021/08/27 09:01:42;;;;;;;10.07;2.05;;;;;;;21.44;63.03;101786.72;5041940;28;20124;-62
2021/08/27 09:04:08;;;;;;;4.97;1.42;;;;;;;22.18;60.56;101777.25;5018931;28;20056;-61
2021/08/27 09:06:35;;;;;;;6.88;1.63;;;;;;;21.67;61.39;101780.31;5038395;28;20134;-61
2021/08/27 09:09:02;;;;;;;6.80;1.30;;;;;;;21.58;61.63;101781.47;5044226;28;20140;-61
2021/08/27 09:11:30;;;;;;;6.43;1.30;;;;;;;21.69;60.94;101784.41;5038733;28;20136;-60
2021/08/27 09:13:59;;;;;;;7.63;1.80;;;;;;;21.63;61.53;101776.38;5044790;28;20146;-62
2021/08/27 09:16:28;;;;;;;7.55;1.50;;;;;;;21.76;61.56;101781.81;5035873;28;20080;-61
2021/08/27 09:18:56;;;;;;;6.63;1.77;;;;;;;21.72;60.91;101781.38;5036595;28;20052;-62
2021/08/27 09:21:37;;;;;;;4.78;1.23;;;;;;;22.44;59.95;101775.72;5036362;28;20053;-63
2021/08/27 09:24:20;;;;;;;6.30;1.38;;;;;;;22.89;57.58;101779.50;5043347;28;20420;-62
2021/08/27 09:26:49;;;;;;;4.43;1.38;;;;;;;22.94;56.62;101780.72;5038637;28;20483;-62
2021/08/27 09:29:33;;;;;;;5.32;1.30;;;;;;;22.90;56.32;101785.66;5042114;28;20143;-60
2021/08/27 09:32:00;;;;;;;4.60;1.20;;;;;;;22.85;56.14;101774.75;5034384;28;20132;-62
2021/08/27 09:34:30;;;;;;;5.57;1.48;;;;;;;23.10;56.78;101781.16;5039252;28;20080;-61
2021/08/27 09:36:58;;;;;;;4.25;1.30;;;;;;;23.39;56.53;101771.06;5045353;28;20128;-62
2021/08/27 09:39:34;;;;;;;;;;;;;;;24.12;54.70;101775.38;5037234;28;20068;-63
2021/08/27 09:42:02;;;;;;;6.35;1.67;;;;;;;24.31;53.22;101762.09;5042559;28;19925;-61
2021/08/27 09:44:29;;;;;;;9.18;1.55;;;;;;;24.03;53.47;101769.44;5036378;28;20092;-62
2021/08/27 09:46:59;;;;;;;9.10;1.40;;;;;;;23.54;54.13;101767.31;5040444;28;20131;-62
2021/08/27 09:49:26;;;;;;;6.07;1.58;;;;;;;23.07;54.49;101770.88;5042843;28;20610;-62
2021/08/27 09:51:53;;;;;;;8.85;1.65;;;;;;;22.47;56.78;101780.66;5046016;28;20156;-62
2021/08/27 09:54:34;;;;;;;8.47;1.33;;;;;;;22.29;56.93;101778.56;5048847;28;20127;-61
2021/08/27 09:57:05;;;;;;;5.55;1.20;;;;;;;22.47;57.67;101770.78;5045776;28;20154;-62
2021/08/27 09:59:50;;;;;;;6.00;1.45;;;;;;;22.70;58.26;101766.94;5044397;28;20087;-61
2021/08/27 10:02:29;;;;;;;7.20;1.63;;;;;;;22.85;56.01;101764.03;5032100;28;20084;-62
2021/08/27 10:04:58;;;;;;;5.53;1.30;;;;;;;23.20;56.47;101756.66;5043555;28;20135;-62
2021/08/27 10:07:27;;;;;;;7.50;1.30;;;;;;;23.66;54.67;101760.28;5039537;28;20131;-62
2021/08/27 10:09:54;;;;;;;7.93;1.80;;;;;;;23.88;53.96;101748.28;5044320;28;20164;-62
2021/08/27 10:12:21;;;;;;;7.03;1.60;;;;;;;23.72;53.84;101750.56;5039123;28;20464;-60
2021/08/27 10:14:49;;;;;;;11.15;1.80;;;;;;;23.64;53.56;101741.75;5041169;28;20488;-62
2021/08/27 10:17:19;;;;;;;8.10;2.30;;;;;;;23.88;53.67;101748.28;5025102;28;20053;-62
2021/08/27 10:19:45;;;;;;;3.67;1.10;;;;;;;23.56;53.05;101759.88;5045741;28;20495;-62
2021/08/27 10:22:12;;;;;;;21.88;2.95;;;;;;;23.57;60.47;101807.06;5044540;28;20087;-62
2021/08/27 10:24:39;;;;;;;15.02;2.00;;;;;;;22.73;67.38;101809.28;5039773;28;20563;-62
2021/08/27 10:27:09;;;;;;;10.27;1.80;;;;;;;22.05;70.49;101788.72;5043565;28;20239;-62
2021/08/27 10:29:46;;;;;;;5.13;1.40;;;;;;;21.36;71.96;101786.84;5032596;28;20132;-64
2021/08/27 10:32:12;;;;;;;6.53;1.25;;;;;;;21.10;75.37;101784.81;5044452;28;20409;-64
2021/08/27 10:34:43;;;;;;;5.35;1.48;;;;;;;21.11;80.64;101784.63;5035281;28;20140;-63
2021/08/27 10:37:48;;;;;;;7.72;1.45;;;;;;;20.97;75.21;101790.03;5047318;28;20716;-64
2021/08/27 10:40:36;;;;;;;4.70;1.58;;;;;;;21.19;81.03;101778.31;5038990;28;20057;-63
2021/08/27 10:43:03;;;;;;;5.55;1.48;;;;;;;21.29;77.71;101778.00;5023092;28;20139;-64
2021/08/27 10:45:33;;;;;;;4.85;1.25;;;;;;;21.38;79.36;101781.31;5041324;28;20080;-63
2021/08/27 10:48:17;;;;;;;6.53;1.73;;;;;;;20.43;86.25;101778.00;5026788;28;20079;-61
2021/08/27 10:50:49;;;;;;;8.80;1.83;;;;;;;20.06;91.89;101779.81;5041119;28;20140;-61
2021/08/27 10:53:23;;;;;;;8.27;1.85;;;;;;;20.08;93.91;101773.28;5037892;28;20051;-61
2021/08/27 10:55:50;;;;;;;6.38;1.30;;;;;;;19.88;94.39;101770.38;5038706;28;20499;-63
2021/08/27 10:58:21;;;;;;;4.78;1.40;;;;;;;19.50;90.60;101765.13;5030896;28;20084;-63
2021/08/27 11:00:51;;;;;;;4.18;1.63;;;;;;;19.47;93.20;101767.31;5042266;28;20055;-61
2021/08/27 11:03:22;;;;;;;7.15;1.55;;;;;;;19.25;91.13;101771.66;5015211;28;20411;-63
2021/08/27 11:05:49;;;;;;;5.90;1.40;;;;;;;19.41;95.29;101766.22;5041969;28;20052;-63
2021/08/27 11:08:25;;;;;;;6.72;1.30;;;;;;;20.13;90.89;101764.72;5041376;28;20099;-61
2021/08/27 11:11:19;;;;;;;6.40;1.50;;;;;;;20.51;93.45;101762.69;5040631;28;20139;-63
2021/08/27 11:13:45;;;;;;;4.28;1.13;;;;;;;20.65;82.27;101750.38;5044714;28;20123;-66
2021/08/27 11:16:21;;;;;;;5.65;1.33;;;;;;;20.63;83.69;101756.91;5039678;28;20103;-63
2021/08/27 11:18:49;;;;;;;4.88;1.38;;;;;;;20.92;90.05;101754.09;5045217;28;20126;-63
2021/08/27 11:21:49;;;;;;;4.90;1.40;;;;;;;21.00;82.44;101745.13;5040001;28;20079;-64
2021/08/27 11:24:22;;;;;;;6.93;1.30;;;;;;;20.97;77.75;101752.69;5014221;28;20139;-62
2021/08/27 11:27:00;;;;;;;4.53;1.73;;;;;;;20.87;76.85;101758.34;5040881;28;20139;-62
2021/08/27 11:29:38;;;;;;;5.18;1.40;;;;;;;20.93;77.83;101745.09;5047272;28;20049;-62
2021/08/27 11:32:27;;;;;;;4.25;1.30;;;;;;;21.31;81.62;101751.94;5035603;28;20138;-64
2021/08/27 11:35:07;;;;;;;7.20;1.38;;;;;;;21.43;78.95;101745.06;5042324;28;20076;-62